Terminal Aerodrome Forecast
Issued by NWS

Home | Current Version | Previous Version | Text Only | Print | Product List | Glossary On
Versions: 1 2 3 4 5 6 7 8 9 10 11 12 13 14
000
FTUS45 KCYS 310520
TAFRWL
TAF
KRWL 310520Z 3106/0106 07004KT P6SM SKC
     FM311200 17007KT P6SM FEW200
     FM311700 22013G20KT P6SM SCT200
     FM311900 22019G26KT P6SM SCT200
     FM010200 22007KT P6SM SCT200=

USA.gov is the U.S. government's official web portal to all federal, state and local government web resources and services.